sensor_id;sensor_type;location;lat;lon;timestamp;pressure;altitude;pressure_sealevel;temperature;humidity
76156;BME280;64906;51.290;7.348;2023-02-14T00:02:05;99306.78;;;18.06;61.69
76156;BME280;64906;51.290;7.348;2023-02-14T00:04:31;99299.41;;;18.06;61.55
76156;BME280;64906;51.290;7.348;2023-02-14T00:06:57;99303.25;;;18.05;61.46
76156;BME280;64906;51.290;7.348;2023-02-14T00:09:22;99302.41;;;18.05;61.41
76156;BME280;64906;51.290;7.348;2023-02-14T00:11:49;99298.59;;;18.06;61.50
76156;BME280;64906;51.290;7.348;2023-02-14T00:14:15;99302.94;;;18.02;61.56
76156;BME280;64906;51.290;7.348;2023-02-14T00:17:01;99293.66;;;18.03;61.46
76156;BME280;64906;51.290;7.348;2023-02-14T00:19:28;99299.13;;;18.03;61.39
76156;BME280;64906;51.290;7.348;2023-02-14T00:21:55;99295.06;;;18.05;61.37
76156;BME280;64906;51.290;7.348;2023-02-14T00:24:23;99288.75;;;18.05;61.64
76156;BME280;64906;51.290;7.348;2023-02-14T00:26:50;99289.03;;;18.03;61.19
76156;BME280;64906;51.290;7.348;2023-02-14T00:29:25;99288.72;;;18.00;61.58
76156;BME280;64906;51.290;7.348;2023-02-14T00:31:51;99284.91;;;18.01;61.42
76156;BME280;64906;51.290;7.348;2023-02-14T00:34:18;99292.03;;;18.02;61.28
76156;BME280;64906;51.290;7.348;2023-02-14T00:36:44;99293.66;;;18.03;61.60
76156;BME280;64906;51.290;7.348;2023-02-14T00:39:12;99295.81;;;18.01;61.56
76156;BME280;64906;51.290;7.348;2023-02-14T00:41:39;99294.75;;;18.02;61.34
76156;BME280;64906;51.290;7.348;2023-02-14T00:44:06;99280.25;;;18.01;61.37
76156;BME280;64906;51.290;7.348;2023-02-14T00:46:33;99286.00;;;18.00;61.43
76156;BME280;64906;51.290;7.348;2023-02-14T00:48:59;99291.19;;;18.01;61.43
76156;BME280;64906;51.290;7.348;2023-02-14T00:51:25;99281.91;;;18.02;61.67
76156;BME280;64906;51.290;7.348;2023-02-14T00:53:51;99286.81;;;18.00;61.32
76156;BME280;64906;51.290;7.348;2023-02-14T00:56:18;99284.91;;;18.01;61.38
76156;BME280;64906;51.290;7.348;2023-02-14T00:58:45;99279.44;;;18.01;61.41
76156;BME280;64906;51.290;7.348;2023-02-14T01:01:11;99270.69;;;17.99;61.41
76156;BME280;64906;51.290;7.348;2023-02-14T01:03:38;99289.56;;;18.00;61.38
76156;BME280;64906;51.290;7.348;2023-02-14T01:06:04;99276.97;;;17.99;61.41
76156;BME280;64906;51.290;7.348;2023-02-14T01:08:31;99278.06;;;17.98;61.42
76156;BME280;64906;51.290;7.348;2023-02-14T01:10:57;99277.78;;;18.00;61.56
76156;BME280;64906;51.290;7.348;2023-02-14T01:13:23;99295.81;;;18.01;61.52
76156;BME280;64906;51.290;7.348;2023-02-14T01:15:51;99287.31;;;17.97;61.35
76156;BME280;64906;51.290;7.348;2023-02-14T01:18:18;99284.91;;;18.01;61.37
76156;BME280;64906;51.290;7.348;2023-02-14T01:20:44;99289.56;;;18.00;61.27
76156;BME280;64906;51.290;7.348;2023-02-14T01:23:10;99283.25;;;18.00;61.37
76156;BME280;64906;51.290;7.348;2023-02-14T01:25:37;99283.25;;;18.00;61.45
76156;BME280;64906;51.290;7.348;2023-02-14T01:28:05;99286.25;;;17.98;61.37
76156;BME280;64906;51.290;7.348;2023-02-14T01:30:32;99276.16;;;17.99;61.33
76156;BME280;64906;51.290;7.348;2023-02-14T01:32:58;99279.44;;;18.01;61.30
76156;BME280;64906;51.290;7.348;2023-02-14T01:35:24;99276.97;;;17.99;61.50
76156;BME280;64906;51.290;7.348;2023-02-14T01:37:50;99267.97;;;17.99;61.45
76156;BME280;64906;51.290;7.348;2023-02-14T01:40:16;99279.97;;;17.98;61.37
76156;BME280;64906;51.290;7.348;2023-02-14T01:42:42;99273.44;;;17.99;61.44
76156;BME280;64906;51.290;7.348;2023-02-14T01:45:16;99269.59;;;18.00;61.31
76156;BME280;64906;51.290;7.348;2023-02-14T01:47:43;99269.03;;;17.98;61.47
76156;BME280;64906;51.290;7.348;2023-02-14T01:50:15;99265.25;;;17.99;61.32
76156;BME280;64906;51.290;7.348;2023-02-14T01:52:50;99261.94;;;17.97;61.51
76156;BME280;64906;51.290;7.348;2023-02-14T01:55:24;99260.00;;;17.97;61.34
76156;BME280;64906;51.290;7.348;2023-02-14T02:00:23;99270.94;;;17.97;61.44
76156;BME280;64906;51.290;7.348;2023-02-14T02:03:08;99262.22;;;17.95;61.36
76156;BME280;64906;51.290;7.348;2023-02-14T02:05:37;99264.94;;;17.95;61.60
76156;BME280;64906;51.290;7.348;2023-02-14T02:08:04;99265.75;;;17.96;61.47
76156;BME280;64906;51.290;7.348;2023-02-14T02:10:30;99265.22;;;17.94;61.46
76156;BME280;64906;51.290;7.348;2023-02-14T02:13:00;99261.66;;;17.93;61.53
76156;BME280;64906;51.290;7.348;2023-02-14T02:15:30;99264.94;;;17.95;61.53
76156;BME280;64906;51.290;7.348;2023-02-14T02:26:47;99264.94;;;17.95;61.35
76156;BME280;64906;51.290;7.348;2023-02-14T02:29:40;99264.09;;;17.95;61.39
76156;BME280;64906;51.290;7.348;2023-02-14T02:38:13;99260.53;;;17.94;61.39
76156;BME280;64906;51.290;7.348;2023-02-14T02:46:10;99256.19;;;17.93;61.43
76156;BME280;64906;51.290;7.348;2023-02-14T02:49:02;99255.34;;;17.93;61.47
76156;BME280;64906;51.290;7.348;2023-02-14T02:51:37;99257.25;;;17.92;61.49
76156;BME280;64906;51.290;7.348;2023-02-14T02:54:33;99252.88;;;17.91;61.53
76156;BME280;64906;51.290;7.348;2023-02-14T02:57:04;99260.25;;;17.91;61.51
76156;BME280;64906;51.290;7.348;2023-02-14T02:59:34;99268.44;;;17.91;61.44
76156;BME280;64906;51.290;7.348;2023-02-14T03:02:15;99264.63;;;17.92;61.38
76156;BME280;64906;51.290;7.348;2023-02-14T03:04:55;99264.34;;;17.88;61.65
76156;BME280;64906;51.290;7.348;2023-02-14T03:15:07;99266.81;;;17.90;61.78
76156;BME280;64906;51.290;7.348;2023-02-14T03:23:20;99268.97;;;17.88;61.60
76156;BME280;64906;51.290;7.348;2023-02-14T03:26:18;99272.22;;;17.85;61.68
76156;BME280;64906;51.290;7.348;2023-02-14T03:28:58;99267.59;;;17.85;61.56
76156;BME280;64906;51.290;7.348;2023-02-14T03:37:14;99269.50;;;17.85;61.47
76156;BME280;64906;51.290;7.348;2023-02-14T03:40:07;99273.34;;;17.84;61.80
76156;BME280;64906;51.290;7.348;2023-02-14T03:42:38;99266.78;;;17.85;61.64
76156;BME280;64906;51.290;7.348;2023-02-14T03:45:08;99280.44;;;17.85;61.61
76156;BME280;64906;51.290;7.348;2023-02-14T03:47:36;99283.16;;;17.85;61.69
76156;BME280;64906;51.290;7.348;2023-02-14T03:50:08;99273.34;;;17.84;61.62
76156;BME280;64906;51.290;7.348;2023-02-14T03:52:36;99283.44;;;17.83;61.66
76156;BME280;64906;51.290;7.348;2023-02-14T03:55:06;99285.88;;;17.85;61.56
76156;BME280;64906;51.290;7.348;2023-02-14T04:00:17;99287.53;;;17.86;61.76
76156;BME280;64906;51.290;7.348;2023-02-14T04:02:59;99285.88;;;17.85;61.79
76156;BME280;64906;51.290;7.348;2023-02-14T04:05:28;99281.53;;;17.84;61.57
76156;BME280;64906;51.290;7.348;2023-02-14T04:07:57;99282.31;;;17.84;61.61
76156;BME280;64906;51.290;7.348;2023-02-14T04:10:24;99284.25;;;17.84;61.63
76156;BME280;64906;51.290;7.348;2023-02-14T04:12:51;99288.63;;;17.85;61.66
76156;BME280;64906;51.290;7.348;2023-02-14T04:15:17;99287.53;;;17.86;61.80
76156;BME280;64906;51.290;7.348;2023-02-14T04:17:43;99279.06;;;17.82;61.91
76156;BME280;64906;51.290;7.348;2023-02-14T04:20:28;99286.47;;;17.87;61.53
76156;BME280;64906;51.290;7.348;2023-02-14T04:22:54;99270.34;;;17.85;61.54
76156;BME280;64906;51.290;7.348;2023-02-14T04:25:22;99279.31;;;17.86;61.72
76156;BME280;64906;51.290;7.348;2023-02-14T04:27:48;99286.47;;;17.87;61.69
76156;BME280;64906;51.290;7.348;2023-02-14T04:30:14;99269.50;;;17.85;61.58
76156;BME280;64906;51.290;7.348;2023-02-14T04:32:43;99275.78;;;17.85;61.64
76156;BME280;64906;51.290;7.348;2023-02-14T04:35:09;99271.13;;;17.86;61.66
76156;BME280;64906;51.290;7.348;2023-02-14T04:37:35;99271.41;;;17.84;61.59
76156;BME280;64906;51.290;7.348;2023-02-14T04:40:00;99260.75;;;17.83;61.58
76156;BME280;64906;51.290;7.348;2023-02-14T04:42:26;99271.66;;;17.83;61.53
76156;BME280;64906;51.290;7.348;2023-02-14T04:44:52;99282.59;;;17.83;61.59
76156;BME280;64906;51.290;7.348;2023-02-14T04:47:18;99288.88;;;17.83;61.66
76156;BME280;64906;51.290;7.348;2023-02-14T04:49:44;99289.72;;;17.84;61.63
76156;BME280;64906;51.290;7.348;2023-02-14T04:52:10;99287.00;;;17.84;61.69
76156;BME280;64906;51.290;7.348;2023-02-14T04:54:38;99288.06;;;17.83;61.56
76156;BME280;64906;51.290;7.348;2023-02-14T04:57:04;99289.72;;;17.84;61.47
76156;BME280;64906;51.290;7.348;2023-02-14T04:59:30;99294.91;;;17.85;61.65
76156;BME280;64906;51.290;7.348;2023-02-14T05:01:55;99297.34;;;17.82;61.49
76156;BME280;64906;51.290;7.348;2023-02-14T05:04:21;99301.72;;;17.83;61.64
76156;BME280;64906;51.290;7.348;2023-02-14T05:06:47;99297.34;;;17.82;61.63
76156;BME280;64906;51.290;7.348;2023-02-14T05:09:13;99298.97;;;17.83;61.64
76156;BME280;64906;51.290;7.348;2023-02-14T05:11:39;99300.91;;;17.82;61.63
76156;BME280;64906;51.290;7.348;2023-02-14T05:14:05;99294.88;;;17.80;61.69
76156;BME280;64906;51.290;7.348;2023-02-14T05:16:31;99293.50;;;17.83;61.86
76156;BME280;64906;51.290;7.348;2023-02-14T05:18:57;99310.72;;;17.83;61.81
76156;BME280;64906;51.290;7.348;2023-02-14T05:21:24;99308.28;;;17.82;61.87
76156;BME280;64906;51.290;7.348;2023-02-14T05:23:50;99305.81;;;17.80;61.58
76156;BME280;64906;51.290;7.348;2023-02-14T05:26:16;99310.72;;;17.83;61.63
76156;BME280;64906;51.290;7.348;2023-02-14T05:28:42;99315.91;;;17.80;61.77
76156;BME280;64906;51.290;7.348;2023-02-14T05:31:08;99319.19;;;17.82;61.74
76156;BME280;64906;51.290;7.348;2023-02-14T05:33:34;99318.63;;;17.80;61.71
76156;BME280;64906;51.290;7.348;2023-02-14T05:36:01;99309.38;;;17.81;61.77
76156;BME280;64906;51.290;7.348;2023-02-14T05:38:29;99319.19;;;17.82;61.76
76156;BME280;64906;51.290;7.348;2023-02-14T05:40:55;99321.91;;;17.82;61.72
76156;BME280;64906;51.290;7.348;2023-02-14T05:43:21;99321.41;;;17.85;61.52
76156;BME280;64906;51.290;7.348;2023-02-14T05:45:47;99323.56;;;17.83;61.92
76156;BME280;64906;51.290;7.348;2023-02-14T05:48:13;99322.19;;;17.80;61.77
76156;BME280;64906;51.290;7.348;2023-02-14T05:50:40;99318.88;;;17.78;61.80
76156;BME280;64906;51.290;7.348;2023-02-14T05:53:08;99320.53;;;17.79;61.81
76156;BME280;64906;51.290;7.348;2023-02-14T05:55:34;99328.47;;;17.81;61.64
76156;BME280;64906;51.290;7.348;2023-02-14T05:57:59;99327.66;;;17.80;61.72
76156;BME280;64906;51.290;7.348;2023-02-14T06:00:28;99320.28;;;17.81;61.91
76156;BME280;64906;51.290;7.348;2023-02-14T06:02:54;99319.47;;;17.80;61.72
76156;BME280;64906;51.290;7.348;2023-02-14T06:05:20;99320.00;;;17.77;61.70
76156;BME280;64906;51.290;7.348;2023-02-14T06:07:49;99321.63;;;17.78;61.84
76156;BME280;64906;51.290;7.348;2023-02-14T06:10:16;99326.25;;;17.78;61.82
76156;BME280;64906;51.290;7.348;2023-02-14T06:12:43;99327.09;;;17.78;61.89
76156;BME280;64906;51.290;7.348;2023-02-14T06:15:09;99336.09;;;17.79;61.75
76156;BME280;64906;51.290;7.348;2023-02-14T06:17:36;99331.72;;;17.78;61.97
76156;BME280;64906;51.290;7.348;2023-02-14T06:20:03;99336.69;;;17.81;61.85
76156;BME280;64906;51.290;7.348;2023-02-14T06:22:29;99339.91;;;17.78;61.82
76156;BME280;64906;51.290;7.348;2023-02-14T06:24:55;99338.28;;;17.77;61.95
76156;BME280;64906;51.290;7.348;2023-02-14T06:27:21;99333.63;;;17.77;61.85
76156;BME280;64906;51.290;7.348;2023-02-14T06:29:47;99332.81;;;17.77;61.92
76156;BME280;64906;51.290;7.348;2023-02-14T06:32:13;99335.28;;;17.78;61.81
76156;BME280;64906;51.290;7.348;2023-02-14T06:34:38;99338.00;;;17.78;61.83
76156;BME280;64906;51.290;7.348;2023-02-14T06:37:06;99336.63;;;17.76;62.06
76156;BME280;64906;51.290;7.348;2023-02-14T06:39:32;99345.38;;;17.78;61.96
76156;BME280;64906;51.290;7.348;2023-02-14T06:41:58;99348.34;;;17.76;62.15
76156;BME280;64906;51.290;7.348;2023-02-14T06:44:24;99342.09;;;17.76;61.79
76156;BME280;64906;51.290;7.348;2023-02-14T06:46:50;99346.19;;;17.78;61.89
76156;BME280;64906;51.290;7.348;2023-02-14T06:49:16;99343.72;;;17.77;62.08
76156;BME280;64906;51.290;7.348;2023-02-14T06:51:42;99337.13;;;17.73;61.94
76156;BME280;64906;51.290;7.348;2023-02-14T06:54:07;99351.66;;;17.78;61.90
76156;BME280;64906;51.290;7.348;2023-02-14T06:56:33;99353.81;;;17.76;62.13
76156;BME280;64906;51.290;7.348;2023-02-14T06:58:59;99358.22;;;17.77;62.00
76156;BME280;64906;51.290;7.348;2023-02-14T07:01:25;99339.38;;;17.76;62.21
76156;BME280;64906;51.290;7.348;2023-02-14T07:03:51;99342.34;;;17.74;62.04
76156;BME280;64906;51.290;7.348;2023-02-14T07:06:19;99351.91;;;17.77;62.05
76156;BME280;64906;51.290;7.348;2023-02-14T07:08:45;99355.75;;;17.76;62.13
76156;BME280;64906;51.290;7.348;2023-02-14T07:11:11;99352.44;;;17.74;62.29
76156;BME280;64906;51.290;7.348;2023-02-14T07:13:37;99359.28;;;17.76;61.98
76156;BME280;64906;51.290;7.348;2023-02-14T07:16:03;99354.34;;;17.73;62.05
76156;BME280;64906;51.290;7.348;2023-02-14T07:18:29;99370.47;;;17.75;62.19
76156;BME280;64906;51.290;7.348;2023-02-14T07:20:55;99366.94;;;17.74;62.26
76156;BME280;64906;51.290;7.348;2023-02-14T07:23:22;99373.19;;;17.75;62.13
76156;BME280;64906;51.290;7.348;2023-02-14T07:25:48;99361.47;;;17.74;62.08
76156;BME280;64906;51.290;7.348;2023-02-14T07:28:14;99373.19;;;17.75;61.74
76156;BME280;64906;51.290;7.348;2023-02-14T07:30:39;99375.13;;;17.74;62.20
76156;BME280;64906;51.290;7.348;2023-02-14T07:33:05;99375.13;;;17.74;61.99
76156;BME280;64906;51.290;7.348;2023-02-14T07:35:31;99387.94;;;17.74;62.07
76156;BME280;64906;51.290;7.348;2023-02-14T07:38:00;99388.22;;;17.72;62.12
76156;BME280;64906;51.290;7.348;2023-02-14T07:40:26;99397.78;;;17.75;62.09
76156;BME280;64906;51.290;7.348;2023-02-14T07:42:56;99396.97;;;17.74;62.22
76156;BME280;64906;51.290;7.348;2023-02-14T07:45:22;99390.09;;;17.72;62.14
76156;BME280;64906;51.290;7.348;2023-02-14T07:47:50;99391.50;;;17.74;62.00
76156;BME280;64906;51.290;7.348;2023-02-14T07:50:17;99394.75;;;17.71;62.07
76156;BME280;64906;51.290;7.348;2023-02-14T07:52:43;99394.47;;;17.73;62.21
76156;BME280;64906;51.290;7.348;2023-02-14T07:55:10;99398.03;;;17.73;62.04
76156;BME280;64906;51.290;7.348;2023-02-14T07:57:37;99397.19;;;17.73;62.21
76156;BME280;64906;51.290;7.348;2023-02-14T08:00:03;99391.75;;;17.73;62.16
76156;BME280;64906;51.290;7.348;2023-02-14T08:02:30;99404.34;;;17.74;62.17
76156;BME280;64906;51.290;7.348;2023-02-14T08:04:56;99412.78;;;17.72;62.06
76156;BME280;64906;51.290;7.348;2023-02-14T08:07:22;99416.84;;;17.70;62.34
76156;BME280;64906;51.290;7.348;2023-02-14T08:09:48;99414.69;;;17.72;62.25
76156;BME280;64906;51.290;7.348;2023-02-14T08:12:14;99413.84;;;17.71;62.47
76156;BME280;64906;51.290;7.348;2023-02-14T08:14:58;99421.56;;;17.74;62.06
76156;BME280;64906;51.290;7.348;2023-02-14T08:17:47;99424.50;;;17.73;62.17
76156;BME280;64906;51.290;7.348;2023-02-14T08:20:13;99430.81;;;17.73;62.15
76156;BME280;64906;51.290;7.348;2023-02-14T08:22:40;99437.94;;;17.74;62.09
76156;BME280;64906;51.290;7.348;2023-02-14T08:25:07;99446.94;;;17.75;62.25
76156;BME280;64906;51.290;7.348;2023-02-14T08:27:33;99459.53;;;17.76;62.04
76156;BME280;64906;51.290;7.348;2023-02-14T08:29:58;99460.59;;;17.75;62.14
76156;BME280;64906;51.290;7.348;2023-02-14T08:32:24;99461.69;;;17.74;62.23
76156;BME280;64906;51.290;7.348;2023-02-14T08:34:50;99478.06;;;17.74;61.88
76156;BME280;64906;51.290;7.348;2023-02-14T08:37:16;99488.72;;;17.75;62.22
76156;BME280;64906;51.290;7.348;2023-02-14T08:39:42;99499.91;;;17.74;62.30
76156;BME280;64906;51.290;7.348;2023-02-14T08:42:08;99509.16;;;17.73;62.12
76156;BME280;64906;51.290;7.348;2023-02-14T08:44:36;99505.38;;;17.74;62.21
76156;BME280;64906;51.290;7.348;2023-02-14T08:47:02;99506.44;;;17.73;62.14
76156;BME280;64906;51.290;7.348;2023-02-14T08:49:28;99520.91;;;17.73;62.07
76156;BME280;64906;51.290;7.348;2023-02-14T08:51:54;99529.09;;;17.73;62.12
76156;BME280;64906;51.290;7.348;2023-02-14T08:54:20;99540.88;;;17.74;62.22
76156;BME280;64906;51.290;7.348;2023-02-14T08:56:46;99547.91;;;17.70;62.04
76156;BME280;64906;51.290;7.348;2023-02-14T08:59:13;99548.22;;;17.73;62.21
76156;BME280;64906;51.290;7.348;2023-02-14T09:01:39;99556.16;;;17.75;62.34
76156;BME280;64906;51.290;7.348;2023-02-14T09:04:04;99562.13;;;17.72;62.03
76156;BME280;64906;51.290;7.348;2023-02-14T09:06:30;99563.78;;;17.73;62.41
76156;BME280;64906;51.290;7.348;2023-02-14T09:08:56;99570.06;;;17.73;62.16
76156;BME280;64906;51.290;7.348;2023-02-14T09:11:23;99573.91;;;17.72;62.18
76156;BME280;64906;51.290;7.348;2023-02-14T09:13:51;99580.16;;;17.73;62.15
76156;BME280;64906;51.290;7.348;2023-02-14T09:16:19;99581.81;;;17.74;62.20
76156;BME280;64906;51.290;7.348;2023-02-14T09:18:47;99573.63;;;17.74;62.11
76156;BME280;64906;51.290;7.348;2023-02-14T09:21:16;99578.53;;;17.72;62.38
76156;BME280;64906;51.290;7.348;2023-02-14T09:23:42;99574.97;;;17.71;62.22
76156;BME280;64906;51.290;7.348;2023-02-14T09:26:11;99576.63;;;17.72;62.19
76156;BME280;64906;51.290;7.348;2023-02-14T09:28:37;99582.09;;;17.72;62.22
76156;BME280;64906;51.290;7.348;2023-02-14T09:31:10;99569.22;;;17.73;62.12
76156;BME280;64906;51.290;7.348;2023-02-14T09:33:37;99573.06;;;17.72;62.26
76156;BME280;64906;51.290;7.348;2023-02-14T09:36:03;99571.75;;;17.74;62.08
76156;BME280;64906;51.290;7.348;2023-02-14T09:38:38;99573.63;;;17.74;62.43
76156;BME280;64906;51.290;7.348;2023-02-14T09:41:08;99579.69;;;17.76;62.46
76156;BME280;64906;51.290;7.348;2023-02-14T09:44:01;99572.28;;;17.76;62.06
76156;BME280;64906;51.290;7.348;2023-02-14T09:46:40;99574.22;;;17.76;62.18
76156;BME280;64906;51.290;7.348;2023-02-14T09:52:30;99570.66;;;17.75;62.00
76156;BME280;64906;51.290;7.348;2023-02-14T09:54:59;99584.88;;;17.77;62.13
76156;BME280;64906;51.290;7.348;2023-02-14T09:57:40;99593.88;;;17.78;62.31
76156;BME280;64906;51.290;7.348;2023-02-14T10:05:43;99616.31;;;17.80;62.08
76156;BME280;64906;51.290;7.348;2023-02-14T10:11:06;99624.50;;;17.80;62.04
76156;BME280;64906;51.290;7.348;2023-02-14T10:13:47;99618.72;;;17.76;62.12
76156;BME280;64906;51.290;7.348;2023-02-14T10:16:24;99606.97;;;17.76;62.05
76156;BME280;64906;51.290;7.348;2023-02-14T10:19:13;99611.09;;;17.78;62.10
76156;BME280;64906;51.290;7.348;2023-02-14T10:21:47;99612.72;;;17.79;61.94
76156;BME280;64906;51.290;7.348;2023-02-14T10:26:52;99613.81;;;17.78;61.78
76156;BME280;64906;51.290;7.348;2023-02-14T10:29:22;99620.13;;;17.79;62.05
76156;BME280;64906;51.290;7.348;2023-02-14T10:34:43;99627.22;;;17.80;62.00
76156;BME280;64906;51.290;7.348;2023-02-14T10:37:35;99637.31;;;17.79;61.96
76156;BME280;64906;51.290;7.348;2023-02-14T10:46:18;99631.31;;;17.77;61.97
76156;BME280;64906;51.290;7.348;2023-02-14T10:48:59;99630.22;;;17.78;61.94
76156;BME280;64906;51.290;7.348;2023-02-14T10:51:38;99623.38;;;17.76;62.09
76156;BME280;64906;51.290;7.348;2023-02-14T10:59:28;99625.59;;;17.79;62.10
76156;BME280;64906;51.290;7.348;2023-02-14T11:01:58;99629.38;;;17.78;62.02
76156;BME280;64906;51.290;7.348;2023-02-14T11:04:25;99629.38;;;17.78;61.93
76156;BME280;64906;51.290;7.348;2023-02-14T11:06:52;99627.22;;;17.80;61.96
76156;BME280;64906;51.290;7.348;2023-02-14T11:09:18;99629.69;;;17.81;62.06
76156;BME280;64906;51.290;7.348;2023-02-14T11:14:27;99622.59;;;17.80;62.07
76156;BME280;64906;51.290;7.348;2023-02-14T11:16:55;99616.81;;;17.77;62.03
76156;BME280;64906;51.290;7.348;2023-02-14T11:19:31;99613.81;;;17.78;62.04
76156;BME280;64906;51.290;7.348;2023-02-14T11:22:00;99608.69;;;17.82;62.00
76156;BME280;64906;51.290;7.348;2023-02-14T11:32:26;99599.66;;;17.81;62.00
76156;BME280;64906;51.290;7.348;2023-02-14T11:35:00;99604.34;;;17.86;61.95
76156;BME280;64906;51.290;7.348;2023-02-14T11:37:30;99609.81;;;17.86;61.97
76156;BME280;64906;51.290;7.348;2023-02-14T11:39:59;99606.53;;;17.84;61.98
76156;BME280;64906;51.290;7.348;2023-02-14T11:42:44;99606.00;;;17.87;61.94
76156;BME280;64906;51.290;7.348;2023-02-14T11:45:33;99603.88;;;17.89;62.08
76156;BME280;64906;51.290;7.348;2023-02-14T11:48:11;99603.88;;;17.89;61.89
76156;BME280;64906;51.290;7.348;2023-02-14T11:50:40;99603.88;;;17.89;62.00
76156;BME280;64906;51.290;7.348;2023-02-14T11:53:11;99598.66;;;17.87;62.30
76156;BME280;64906;51.290;7.348;2023-02-14T11:55:38;99601.13;;;17.89;62.16
76156;BME280;64906;51.290;7.348;2023-02-14T11:58:07;99597.56;;;17.88;62.08
76156;BME280;64906;51.290;7.348;2023-02-14T12:00:33;99596.72;;;17.88;62.31
76156;BME280;64906;51.290;7.348;2023-02-14T12:03:05;99591.59;;;17.91;62.22
76156;BME280;64906;51.290;7.348;2023-02-14T12:05:34;99595.16;;;17.92;62.21
76156;BME280;64906;51.290;7.348;2023-02-14T12:08:09;99596.22;;;17.91;62.23
76156;BME280;64906;51.290;7.348;2023-02-14T12:10:39;99598.13;;;17.90;62.22
76156;BME280;64906;51.290;7.348;2023-02-14T12:15:37;99603.34;;;17.92;62.32
76156;BME280;64906;51.290;7.348;2023-02-14T12:18:46;99597.63;;;17.93;62.39
76156;BME280;64906;51.290;7.348;2023-02-14T12:21:39;99603.09;;;17.93;62.19
76156;BME280;64906;51.290;7.348;2023-02-14T12:24:29;99602.81;;;17.95;62.31
76156;BME280;64906;51.290;7.348;2023-02-14T12:27:15;99588.59;;;17.93;62.27
76156;BME280;64906;51.290;7.348;2023-02-14T12:30:21;99577.41;;;17.94;62.26
76156;BME280;64906;51.290;7.348;2023-02-14T12:32:50;99568.41;;;17.94;62.39
76156;BME280;64906;51.290;7.348;2023-02-14T12:41:00;99557.53;;;17.99;62.23
76156;BME280;64906;51.290;7.348;2023-02-14T12:43:48;99556.19;;;18.01;62.47
76156;BME280;64906;51.290;7.348;2023-02-14T12:46:36;99556.75;;;18.03;62.36
76156;BME280;64906;51.290;7.348;2023-02-14T13:06:24;99549.94;;;18.06;62.47
76156;BME280;64906;51.290;7.348;2023-02-14T13:14:41;99553.50;;;18.06;62.49
76156;BME280;64906;51.290;7.348;2023-02-14T13:20:39;99549.94;;;18.06;62.56
76156;BME280;64906;51.290;7.348;2023-02-14T13:23:15;99534.63;;;18.05;62.40
76156;BME280;64906;51.290;7.348;2023-02-14T13:25:50;99525.91;;;18.08;62.28
76156;BME280;64906;51.290;7.348;2023-02-14T13:28:19;99518.56;;;18.08;62.41
76156;BME280;64906;51.290;7.348;2023-02-14T13:30:47;99502.16;;;18.08;62.17
76156;BME280;64906;51.290;7.348;2023-02-14T13:33:33;99505.69;;;18.09;62.38
76156;BME280;64906;51.290;7.348;2023-02-14T13:36:07;99504.63;;;18.10;62.43
76156;BME280;64906;51.290;7.348;2023-02-14T13:38:49;99504.94;;;18.13;62.08
76156;BME280;64906;51.290;7.348;2023-02-14T13:41:17;99494.81;;;18.14;62.22
76156;BME280;64906;51.290;7.348;2023-02-14T13:43:56;99499.97;;;18.10;62.23
76156;BME280;64906;51.290;7.348;2023-02-14T13:54:46;99482.81;;;18.15;62.20
76156;BME280;64906;51.290;7.348;2023-02-14T13:57:30;99482.28;;;18.18;62.05
76156;BME280;64906;51.290;7.348;2023-02-14T14:02:55;99483.13;;;18.18;62.05
76156;BME280;64906;51.290;7.348;2023-02-14T14:10:52;99478.19;;;18.20;61.95
76156;BME280;64906;51.290;7.348;2023-02-14T14:19:33;99463.47;;;18.21;62.20
76156;BME280;64906;51.290;7.348;2023-02-14T14:22:02;99474.13;;;18.23;62.23
76156;BME280;64906;51.290;7.348;2023-02-14T14:24:30;99479.06;;;18.26;62.24
76156;BME280;64906;51.290;7.348;2023-02-14T14:27:21;99477.72;;;18.28;62.05
76156;BME280;64906;51.290;7.348;2023-02-14T14:29:54;99466.75;;;18.23;61.99
76156;BME280;64906;51.290;7.348;2023-02-14T14:35:03;99460.50;;;18.28;62.54
76156;BME280;64906;51.290;7.348;2023-02-14T14:37:34;99452.59;;;18.26;62.13
76156;BME280;64906;51.290;7.348;2023-02-14T14:40:05;99448.75;;;18.27;62.11
76156;BME280;64906;51.290;7.348;2023-02-14T14:42:37;99432.63;;;18.26;62.36
76156;BME280;64906;51.290;7.348;2023-02-14T14:45:22;99434.56;;;18.30;62.56
76156;BME280;64906;51.290;7.348;2023-02-14T14:47:52;99422.56;;;18.31;62.42
76156;BME280;64906;51.290;7.348;2023-02-14T14:50:30;99413.78;;;18.29;62.47
76156;BME280;64906;51.290;7.348;2023-02-14T14:53:02;99420.63;;;18.32;62.44
76156;BME280;64906;51.290;7.348;2023-02-14T14:55:31;99420.66;;;18.37;62.20
76156;BME280;64906;51.290;7.348;2023-02-14T14:58:02;99430.53;;;18.38;62.41
76156;BME280;64906;51.290;7.348;2023-02-14T15:00:33;99439.03;;;18.41;62.11
76156;BME280;64906;51.290;7.348;2023-02-14T15:03:14;99432.19;;;18.39;62.13
76156;BME280;64906;51.290;7.348;2023-02-14T15:05:45;99435.44;;;18.36;62.39
76156;BME280;64906;51.290;7.348;2023-02-14T15:10:59;99427.88;;;18.48;62.10
76156;BME280;64906;51.290;7.348;2023-02-14T15:13:32;99421.28;;;18.44;62.36
76156;BME280;64906;51.290;7.348;2023-02-14T15:16:44;99418.75;;;18.37;62.31
76156;BME280;64906;51.290;7.348;2023-02-14T15:19:33;99424.00;;;18.39;62.84
76156;BME280;64906;51.290;7.348;2023-02-14T15:22:40;99424.00;;;18.39;62.47
76156;BME280;64906;51.290;7.348;2023-02-14T15:25:31;99420.16;;;18.40;62.57
76156;BME280;64906;51.290;7.348;2023-02-14T15:27:57;99415.25;;;18.42;62.67
76156;BME280;64906;51.290;7.348;2023-02-14T15:30:27;99400.22;;;18.39;62.50
76156;BME280;64906;51.290;7.348;2023-02-14T15:33:04;99393.94;;;18.39;62.60
76156;BME280;64906;51.290;7.348;2023-02-14T15:35:33;99391.75;;;18.41;62.71
76156;BME280;64906;51.290;7.348;2023-02-14T15:38:09;99392.56;;;18.41;62.56
76156;BME280;64906;51.290;7.348;2023-02-14T15:40:36;99389.81;;;18.41;62.48
76156;BME280;64906;51.290;7.348;2023-02-14T15:45:48;99376.16;;;18.41;62.39
76156;BME280;64906;51.290;7.348;2023-02-14T15:48:23;99378.34;;;18.39;62.57